createdAt,value
2023-02-12T00:00:50.520Z,3.30
2023-02-12T00:03:56.505Z,3.20
2023-02-12T00:07:02.223Z,3.10
2023-02-12T00:10:07.548Z,3.10
2023-02-12T00:13:13.146Z,2.78
2023-02-12T00:16:22.376Z,3.17
2023-02-12T00:19:28.220Z,3.38
2023-02-12T00:22:33.253Z,3.33
2023-02-12T00:25:39.135Z,2.67
2023-02-12T00:28:44.514Z,3.35
2023-02-12T00:31:54.306Z,3.72
2023-02-12T00:34:59.648Z,4.30
2023-02-12T00:38:05.534Z,3.92
2023-02-12T00:41:10.805Z,3.80
2023-02-12T00:44:16.474Z,5.13
2023-02-12T00:47:24.423Z,4.75
2023-02-12T00:50:31.873Z,4.60
2023-02-12T00:53:38.791Z,4.13
2023-02-12T00:56:45.973Z,3.92
2023-02-12T00:59:50.932Z,3.83
2023-02-12T01:02:59.094Z,4.13
2023-02-12T01:06:04.336Z,4.43
2023-02-12T01:09:09.770Z,4.50
2023-02-12T01:12:15.282Z,3.85
2023-02-12T01:15:21.083Z,4.32
2023-02-12T01:18:29.271Z,4.43
2023-02-12T01:24:39.877Z,4.35
2023-02-12T01:27:45.497Z,4.13
2023-02-12T01:30:51.040Z,5.10
2023-02-12T01:33:59.514Z,4.28
2023-02-12T01:37:05.022Z,4.70
2023-02-12T01:40:11.456Z,5.20
2023-02-12T01:43:17.615Z,4.30
2023-02-12T01:46:23.393Z,4.53
2023-02-12T01:49:35.214Z,3.50
2023-02-12T01:52:42.434Z,3.72
2023-02-12T01:55:47.620Z,3.60
2023-02-12T01:58:56.002Z,3.22
2023-02-12T02:02:01.720Z,2.47
2023-02-12T02:05:10.439Z,2.65
2023-02-12T02:08:16.276Z,2.70
2023-02-12T02:11:34.020Z,2.60
2023-02-12T02:14:39.567Z,1.92
2023-02-12T02:17:49.207Z,2.53
2023-02-12T02:21:09.447Z,2.78
2023-02-12T02:24:30.047Z,2.30
2023-02-12T02:27:38.976Z,2.95
2023-02-12T02:30:50.494Z,2.80
2023-02-12T02:33:58.528Z,2.75
2023-02-12T02:37:06.965Z,3.10
2023-02-12T02:40:13.917Z,3.30
2023-02-12T02:43:21.110Z,3.63
2023-02-12T02:46:31.014Z,3.70
2023-02-12T02:49:39.533Z,4.35
2023-02-12T02:52:47.701Z,3.97
2023-02-12T02:55:55.272Z,4.32
2023-02-12T02:59:02.718Z,4.45
2023-02-12T03:02:14.507Z,4.72
2023-02-12T03:05:22.818Z,4.53
2023-02-12T03:08:29.078Z,4.93
2023-02-12T03:11:35.286Z,4.18
2023-02-12T03:14:42.837Z,4.00
2023-02-12T03:17:52.658Z,3.95
2023-02-12T03:21:01.160Z,3.92
2023-02-12T03:24:10.818Z,2.90
2023-02-12T03:27:19.764Z,3.20
2023-02-12T03:30:25.404Z,2.65
2023-02-12T03:33:37.152Z,3.25
2023-02-12T03:36:47.476Z,3.20
2023-02-12T03:39:56.723Z,3.00
2023-02-12T03:43:05.080Z,2.78
2023-02-12T03:46:15.469Z,2.97
2023-02-12T03:49:26.948Z,3.28
2023-02-12T03:52:32.811Z,2.78
2023-02-12T03:55:39.986Z,2.80
2023-02-12T03:58:46.308Z,2.53
2023-02-12T04:01:52.358Z,2.58
2023-02-12T04:05:00.720Z,2.00
2023-02-12T04:08:07.452Z,2.97
2023-02-12T04:11:17.666Z,3.08
2023-02-12T04:14:27.926Z,3.15
2023-02-12T04:17:36.776Z,2.00
2023-02-12T04:20:51.272Z,2.40
2023-02-12T04:24:00.384Z,2.30
2023-02-12T04:27:10.407Z,3.13
2023-02-12T04:30:18.924Z,1.90
2023-02-12T04:33:26.143Z,2.00
2023-02-12T04:36:35.594Z,2.47
2023-02-12T04:39:42.313Z,1.70
2023-02-12T04:42:48.283Z,2.17
2023-02-12T04:45:53.878Z,1.95
2023-02-12T04:49:01.404Z,1.80
2023-02-12T04:52:09.624Z,1.70
2023-02-12T04:55:15.305Z,1.17
2023-02-12T04:58:20.878Z,1.30
2023-02-12T05:01:26.177Z,1.35
2023-02-12T05:04:31.386Z,1.20
2023-02-12T05:07:39.432Z,1.20
2023-02-12T05:10:44.896Z,1.00
2023-02-12T05:13:51.709Z,1.20
2023-02-12T05:16:57.054Z,1.20
2023-02-12T05:20:02.389Z,1.20
2023-02-12T05:23:11.900Z,1.13
2023-02-12T05:26:18.689Z,1.17
2023-02-12T05:29:24.134Z,1.02
2023-02-12T05:32:29.796Z,1.42
2023-02-12T05:35:37.378Z,1.15
2023-02-12T05:38:45.777Z,1.02
2023-02-12T05:41:51.191Z,1.50
2023-02-12T05:44:56.501Z,1.00
2023-02-12T05:48:02.925Z,1.00
2023-02-12T05:51:09.077Z,1.08
2023-02-12T05:54:16.777Z,1.10
2023-02-12T05:57:22.195Z,1.40
2023-02-12T06:00:27.768Z,0.90
2023-02-12T06:03:33.235Z,0.95
2023-02-12T06:06:42.323Z,1.08
2023-02-12T06:09:50.990Z,0.90
2023-02-12T06:12:57.431Z,1.13
2023-02-12T06:16:03.474Z,1.02
2023-02-12T06:19:09.283Z,1.45
2023-02-12T06:22:14.817Z,1.08
2023-02-12T06:25:22.802Z,1.10
2023-02-12T06:28:28.271Z,1.33
2023-02-12T06:31:34.515Z,0.80
2023-02-12T06:34:39.848Z,0.98
2023-02-12T06:37:45.183Z,1.05
2023-02-12T06:40:53.669Z,1.00
2023-02-12T06:47:04.173Z,1.10
2023-02-12T06:50:10.641Z,1.05
2023-02-12T06:53:16.380Z,1.10
2023-02-12T06:56:25.729Z,0.98
2023-02-12T06:59:31.668Z,1.10
2023-02-12T07:02:39.061Z,1.08
2023-02-12T07:05:44.922Z,0.80
2023-02-12T07:08:50.501Z,0.98
2023-02-12T07:11:59.305Z,0.90
2023-02-12T07:15:05.629Z,1.88
2023-02-12T07:18:11.100Z,1.00
2023-02-12T07:21:17.507Z,1.10
2023-02-12T07:24:23.127Z,1.00
2023-02-12T07:27:30.923Z,1.08
2023-02-12T07:30:36.253Z,1.17
2023-02-12T07:33:42.096Z,1.10
2023-02-12T07:36:47.218Z,0.80
2023-02-12T07:39:52.550Z,0.88
2023-02-12T07:43:01.232Z,0.90
2023-02-12T07:46:10.961Z,2.00
2023-02-12T07:49:17.404Z,1.08
2023-02-12T07:52:22.964Z,1.67
2023-02-12T07:55:28.799Z,0.95
2023-02-12T07:58:36.798Z,0.93
2023-02-12T08:01:43.266Z,1.30
2023-02-12T08:04:48.661Z,1.10
2023-02-12T08:07:54.516Z,1.30
2023-02-12T08:11:00.100Z,1.10
2023-02-12T08:14:08.347Z,1.00
2023-02-12T08:17:13.610Z,0.93
2023-02-12T08:20:19.094Z,1.13
2023-02-12T08:23:24.194Z,0.93
2023-02-12T08:26:30.579Z,1.20
2023-02-12T08:29:38.371Z,0.90
2023-02-12T08:32:43.504Z,0.80
2023-02-12T08:35:49.106Z,1.05
2023-02-12T08:38:55.210Z,0.90
2023-02-12T08:42:01.239Z,1.17
2023-02-12T08:45:09.622Z,1.05
2023-02-12T08:48:15.084Z,1.00
2023-02-12T08:51:21.916Z,1.10
2023-02-12T08:54:28.271Z,0.82
2023-02-12T08:57:34.760Z,0.85
2023-02-12T09:00:42.712Z,0.50
2023-02-12T09:03:48.916Z,0.77
2023-02-12T09:06:54.597Z,1.15
2023-02-12T09:09:59.830Z,1.08
2023-02-12T09:13:06.794Z,0.50
2023-02-12T09:16:15.192Z,0.70
2023-02-12T09:19:20.578Z,0.70
2023-02-12T09:22:26.429Z,0.70
2023-02-12T09:25:31.924Z,0.63
2023-02-12T09:28:37.577Z,0.55
2023-02-12T09:31:45.806Z,0.70
2023-02-12T09:34:51.740Z,0.80
2023-02-12T09:37:57.549Z,0.75
2023-02-12T09:41:13.858Z,0.82
2023-02-12T09:44:24.335Z,0.90
2023-02-12T09:47:34.313Z,0.52
2023-02-12T09:50:45.602Z,0.77
2023-02-12T09:53:51.779Z,0.60
2023-02-12T09:56:58.863Z,0.80
2023-02-12T10:00:06.977Z,0.80
2023-02-12T10:03:19.254Z,0.85
2023-02-12T10:06:25.955Z,0.98
2023-02-12T10:09:40.011Z,0.90
2023-02-12T10:12:50.682Z,0.85
2023-02-12T10:16:00.097Z,0.90
2023-02-12T10:19:16.185Z,1.50
2023-02-12T10:22:24.392Z,0.65
2023-02-12T10:25:31.554Z,0.95
2023-02-12T10:28:39.176Z,0.70
2023-02-12T10:31:47.732Z,0.80
2023-02-12T10:34:59.594Z,0.77
2023-02-12T10:38:07.666Z,0.90
2023-02-12T10:41:14.183Z,0.88
2023-02-12T10:44:19.543Z,0.70
2023-02-12T10:47:26.668Z,0.98
2023-02-12T10:50:40.066Z,1.00
2023-02-12T10:53:47.068Z,1.00
2023-02-12T10:56:52.818Z,0.68
2023-02-12T10:59:58.708Z,0.82
2023-02-12T11:03:05.961Z,1.20
2023-02-12T11:06:18.262Z,0.93
2023-02-12T11:09:31.163Z,1.00
2023-02-12T11:12:37.037Z,0.70
2023-02-12T11:15:50.553Z,0.90
2023-02-12T11:19:00.999Z,0.73
2023-02-12T11:22:14.944Z,1.00
2023-02-12T11:25:20.608Z,0.85
2023-02-12T11:28:26.319Z,0.93
2023-02-12T11:31:32.283Z,1.27
2023-02-12T11:34:37.966Z,0.90
2023-02-12T11:37:47.018Z,0.70
2023-02-12T11:40:59.903Z,0.70
2023-02-12T11:44:05.972Z,1.17
2023-02-12T11:47:12.885Z,1.15
2023-02-12T11:50:25.254Z,1.20
2023-02-12T11:53:36.432Z,1.15
2023-02-12T11:56:45.827Z,1.38
2023-02-12T11:59:52.193Z,1.00
2023-02-12T12:03:00.477Z,1.20
2023-02-12T12:06:09.798Z,0.60
2023-02-12T12:09:19.637Z,0.82
2023-02-12T12:12:26.144Z,1.10
2023-02-12T12:15:46.378Z,2.03
2023-02-12T12:19:05.986Z,0.90
2023-02-12T12:22:17.276Z,1.17
2023-02-12T12:25:28.106Z,0.90
2023-02-12T12:28:36.089Z,0.80
2023-02-12T12:31:42.705Z,0.75
2023-02-12T12:34:48.496Z,0.90
2023-02-12T12:37:57.411Z,0.75
2023-02-12T12:41:12.120Z,1.23
2023-02-12T12:44:24.552Z,0.90
2023-02-12T12:47:33.717Z,0.90
2023-02-12T12:50:48.368Z,1.02
2023-02-12T12:53:59.291Z,0.88
2023-02-12T12:57:11.924Z,1.23
2023-02-12T13:00:31.869Z,2.17
2023-02-12T13:03:56.144Z,1.10
2023-02-12T13:07:09.666Z,0.70
2023-02-12T13:10:22.825Z,0.80
2023-02-12T13:13:34.554Z,1.30
2023-02-12T13:16:43.683Z,1.25
2023-02-12T13:19:55.396Z,1.00
2023-02-12T13:23:02.628Z,0.70
2023-02-12T13:26:11.361Z,0.88
2023-02-12T13:29:21.820Z,1.10
2023-02-12T13:32:29.454Z,1.48
2023-02-12T13:35:37.224Z,1.05
2023-02-12T13:38:45.521Z,0.73
2023-02-12T13:41:55.826Z,1.35
2023-02-12T13:45:08.285Z,1.40
2023-02-12T13:48:29.398Z,1.20
2023-02-12T13:51:40.276Z,0.80
2023-02-12T13:54:52.999Z,1.45
2023-02-12T13:58:13.210Z,0.88
2023-02-12T14:01:33.440Z,0.88
2023-02-12T14:04:42.873Z,0.90
2023-02-12T14:07:50.684Z,1.27
2023-02-12T14:11:07.178Z,0.85
2023-02-12T14:14:12.369Z,0.90
2023-02-12T14:17:34.979Z,1.05
2023-02-12T14:20:43.069Z,1.15
2023-02-12T14:23:50.971Z,1.45
2023-02-12T14:26:56.306Z,1.10
2023-02-12T14:30:06.385Z,1.10
2023-02-12T14:33:22.894Z,1.45
2023-02-12T14:36:44.304Z,1.20
2023-02-12T14:39:49.358Z,1.50
2023-02-12T14:42:59.169Z,1.50
2023-02-12T14:46:19.041Z,1.58
2023-02-12T14:49:28.587Z,1.70
2023-02-12T14:52:41.255Z,1.40
2023-02-12T14:55:50.387Z,1.38
2023-02-12T14:58:57.023Z,1.30
2023-02-12T15:02:04.052Z,1.05
2023-02-12T15:05:16.162Z,1.00
2023-02-12T15:08:29.454Z,1.30
2023-02-12T15:11:40.932Z,1.20
2023-02-12T15:14:48.945Z,1.13
2023-02-12T15:17:57.768Z,1.13
2023-02-12T15:21:05.171Z,1.10
2023-02-12T15:24:13.984Z,1.42
2023-02-12T15:27:20.192Z,1.40
2023-02-12T15:30:27.219Z,1.33
2023-02-12T15:33:33.602Z,1.27
2023-02-12T15:36:39.635Z,1.10
2023-02-12T15:39:48.274Z,1.42
2023-02-12T15:42:59.336Z,1.20
2023-02-12T15:46:06.337Z,1.13
2023-02-12T15:49:22.543Z,1.52
2023-02-12T15:52:34.911Z,1.48
2023-02-12T15:55:44.808Z,1.42
2023-02-12T15:58:51.067Z,1.63
2023-02-12T16:01:57.471Z,1.45
2023-02-12T16:05:03.410Z,1.48
2023-02-12T16:08:09.141Z,1.40
2023-02-12T16:11:20.190Z,1.65
2023-02-12T16:14:26.757Z,1.67
2023-02-12T16:17:32.706Z,1.52
2023-02-12T16:20:38.675Z,1.50
2023-02-12T16:23:46.141Z,1.88
2023-02-12T16:26:54.303Z,2.13
2023-02-12T16:30:00.753Z,1.52
2023-02-12T16:33:08.707Z,1.70
2023-02-12T16:36:16.604Z,1.70
2023-02-12T16:39:42.083Z,1.23
2023-02-12T16:43:02.459Z,1.33
2023-02-12T16:46:08.928Z,1.25
2023-02-12T16:49:17.813Z,1.85
2023-02-12T16:52:25.352Z,1.50
2023-02-12T16:55:31.028Z,1.80
2023-02-12T16:58:39.264Z,2.53
2023-02-12T17:04:49.661Z,1.50
2023-02-12T17:07:55.407Z,1.60
2023-02-12T17:11:00.767Z,2.05
2023-02-12T17:14:08.793Z,1.55
2023-02-12T17:17:14.045Z,2.08
2023-02-12T17:20:19.710Z,1.40
2023-02-12T17:23:25.368Z,1.85
2023-02-12T17:26:30.843Z,1.92
2023-02-12T17:29:38.713Z,2.42
2023-02-12T17:32:44.030Z,2.08
2023-02-12T17:35:49.652Z,2.15
2023-02-12T17:38:54.859Z,2.40
2023-02-12T17:42:02.599Z,3.08
2023-02-12T17:45:11.691Z,2.80
2023-02-12T17:48:18.487Z,2.83
2023-02-12T17:51:23.779Z,2.60
2023-02-12T17:54:29.315Z,2.70
2023-02-12T17:57:34.840Z,2.60
2023-02-12T18:00:43.661Z,2.72
2023-02-12T18:03:51.984Z,3.53
2023-02-12T18:06:59.622Z,2.40
2023-02-12T18:10:05.417Z,2.75
2023-02-12T18:13:10.661Z,2.35
2023-02-12T18:16:19.052Z,2.70
2023-02-12T18:22:29.576Z,2.35
2023-02-12T18:25:35.004Z,2.65
2023-02-12T18:28:40.632Z,2.55
2023-02-12T18:31:48.759Z,2.10
2023-02-12T18:34:54.538Z,2.88
2023-02-12T18:37:59.727Z,3.00
2023-02-12T18:41:09.051Z,2.70
2023-02-12T18:44:14.262Z,2.42
2023-02-12T18:47:22.239Z,3.30
2023-02-12T18:50:27.692Z,3.80
2023-02-12T18:53:33.154Z,3.17
2023-02-12T18:56:40.284Z,3.80
2023-02-12T18:59:46.126Z,2.97
2023-02-12T19:02:53.926Z,2.63
2023-02-12T19:06:05.888Z,2.72
2023-02-12T19:09:12.012Z,2.40
2023-02-12T19:12:17.570Z,3.25
2023-02-12T19:15:23.054Z,2.42
2023-02-12T19:18:31.385Z,2.70
2023-02-12T19:24:46.872Z,3.35
2023-02-12T19:27:52.519Z,3.83
2023-02-12T19:30:58.002Z,2.88
2023-02-12T19:34:07.435Z,3.47
2023-02-12T19:37:13.980Z,2.60
2023-02-12T19:40:19.600Z,3.00
2023-02-12T19:43:25.123Z,3.30
2023-02-12T19:46:32.778Z,3.00
2023-02-12T19:49:41.828Z,2.38
2023-02-12T19:52:46.999Z,2.63
2023-02-12T19:55:52.866Z,2.50
2023-02-12T19:58:59.372Z,2.38
2023-02-12T20:02:05.564Z,2.50
2023-02-12T20:05:13.692Z,2.65
2023-02-12T20:08:19.416Z,2.78
2023-02-12T20:11:26.019Z,2.38
2023-02-12T20:14:31.641Z,3.00
2023-02-12T20:17:36.860Z,2.67
2023-02-12T20:20:44.907Z,2.30
2023-02-12T20:26:55.686Z,2.40
2023-02-12T20:30:01.104Z,3.15
2023-02-12T20:33:06.566Z,3.47
2023-02-12T20:36:15.577Z,3.38
2023-02-12T20:39:22.019Z,3.17
2023-02-12T20:42:27.147Z,2.58
2023-02-12T20:45:32.868Z,3.58
2023-02-12T20:48:39.750Z,2.85
2023-02-12T20:51:48.376Z,2.50
2023-02-12T20:54:54.059Z,2.33
2023-02-12T20:57:59.391Z,2.92
2023-02-12T21:01:08.693Z,2.30
2023-02-12T21:04:16.940Z,2.55
2023-02-12T21:07:24.823Z,2.35
2023-02-12T21:10:31.050Z,2.22
2023-02-12T21:13:36.475Z,1.92
2023-02-12T21:16:44.631Z,2.05
2023-02-12T21:19:49.767Z,2.15
2023-02-12T21:22:57.744Z,1.55
2023-02-12T21:26:04.369Z,1.40
2023-02-12T21:29:10.319Z,1.92
2023-02-12T21:32:15.488Z,1.63
2023-02-12T21:35:21.144Z,1.45
2023-02-12T21:38:29.361Z,1.42
2023-02-12T21:41:35.843Z,1.30
2023-02-12T21:44:41.320Z,1.80
2023-02-12T21:47:46.403Z,1.25
2023-02-12T21:50:51.859Z,1.40
2023-02-12T21:54:00.633Z,1.23
2023-02-12T21:57:06.089Z,1.70
2023-02-12T22:00:12.508Z,1.70
2023-02-12T22:03:18.523Z,1.70
2023-02-12T22:06:25.247Z,1.40
2023-02-12T22:09:33.197Z,1.25
2023-02-12T22:12:38.510Z,1.95
2023-02-12T22:15:43.891Z,1.63
2023-02-12T22:18:49.652Z,1.70
2023-02-12T22:21:55.254Z,2.47
2023-02-12T22:25:03.084Z,2.50
2023-02-12T22:28:08.672Z,2.92
2023-02-12T22:31:14.796Z,2.88
2023-02-12T22:34:21.778Z,2.97
2023-02-12T22:37:27.083Z,3.70
2023-02-12T22:40:35.253Z,2.70
2023-02-12T22:43:41.701Z,2.75
2023-02-12T22:46:47.594Z,2.58
2023-02-12T22:49:52.722Z,2.90
2023-02-12T22:52:58.086Z,3.03
2023-02-12T22:56:08.187Z,3.22
2023-02-12T22:59:14.244Z,2.97
2023-02-12T23:02:19.349Z,2.70
2023-02-12T23:05:24.958Z,2.75
2023-02-12T23:08:30.874Z,2.72
2023-02-12T23:11:39.659Z,2.70
2023-02-12T23:14:45.240Z,2.60
2023-02-12T23:17:50.575Z,2.67
2023-02-12T23:20:56.559Z,2.42
2023-02-12T23:24:02.795Z,2.53
2023-02-12T23:27:11.134Z,3.13
2023-02-12T23:33:21.849Z,3.70
2023-02-12T23:36:27.088Z,2.90
2023-02-12T23:39:33.021Z,2.80
2023-02-12T23:42:41.127Z,3.53
2023-02-12T23:45:47.351Z,3.30
2023-02-12T23:48:52.817Z,2.83
2023-02-12T23:51:57.961Z,2.33
2023-02-12T23:55:03.288Z,2.35
2023-02-12T23:58:11.356Z,2.40
